sensor_id;sensor_type;location;lat;lon;timestamp;P1;durP1;ratioP1;P2;durP2;ratioP2
73421;SDS011;61637;47.760;-122.022;2023-04-29T00:00:01;13.2;;;2.6;;
73421;SDS011;61637;47.760;-122.022;2023-04-29T00:02:01;11.1;;;2.6;;
73421;SDS011;61637;47.760;-122.022;2023-04-29T00:04:01;9.1;;;2.3;;
73421;SDS011;61637;47.760;-122.022;2023-04-29T00:06:01;9.4;;;2.5;;
73421;SDS011;61637;47.760;-122.022;2023-04-29T00:08:01;10.6;;;2.6;;
73421;SDS011;61637;47.760;-122.022;2023-04-29T00:10:01;12.7;;;2.4;;
73421;SDS011;61637;47.760;-122.022;2023-04-29T00:12:01;11.3;;;2.7;;
73421;SDS011;61637;47.760;-122.022;2023-04-29T00:14:01;13.7;;;2.6;;
73421;SDS011;61637;47.760;-122.022;2023-04-29T00:16:01;11.5;;;2.4;;
73421;SDS011;61637;47.760;-122.022;2023-04-29T00:18:01;9.4;;;2.5;;
73421;SDS011;61637;47.760;-122.022;2023-04-29T00:20:01;8.8;;;2.4;;
73421;SDS011;61637;47.760;-122.022;2023-04-29T00:22:01;8.4;;;2.3;;
73421;SDS011;61637;47.760;-122.022;2023-04-29T00:24:01;10.7;;;2.8;;
73421;SDS011;61637;47.760;-122.022;2023-04-29T00:26:01;8.4;;;2.4;;
73421;SDS011;61637;47.760;-122.022;2023-04-29T00:28:01;14.1;;;2.6;;
73421;SDS011;61637;47.760;-122.022;2023-04-29T00:30:02;8.9;;;2.2;;
73421;SDS011;61637;47.760;-122.022;2023-04-29T00:32:01;9.7;;;2.6;;
73421;SDS011;61637;47.760;-122.022;2023-04-29T00:34:01;11.8;;;2.5;;
73421;SDS011;61637;47.760;-122.022;2023-04-29T00:36:01;11.8;;;2.7;;
73421;SDS011;61637;47.760;-122.022;2023-04-29T00:38:01;10.6;;;2.4;;
73421;SDS011;61637;47.760;-122.022;2023-04-29T00:40:01;10.3;;;2.4;;
73421;SDS011;61637;47.760;-122.022;2023-04-29T00:42:02;12.2;;;2.4;;
73421;SDS011;61637;47.760;-122.022;2023-04-29T00:44:01;14.7;;;2.7;;
73421;SDS011;61637;47.760;-122.022;2023-04-29T00:46:02;8.6;;;2.3;;
73421;SDS011;61637;47.760;-122.022;2023-04-29T00:48:01;9.1;;;2.3;;
73421;SDS011;61637;47.760;-122.022;2023-04-29T00:50:01;12.2;;;2.4;;
73421;SDS011;61637;47.760;-122.022;2023-04-29T00:52:01;11.0;;;2.2;;
73421;SDS011;61637;47.760;-122.022;2023-04-29T00:54:02;13.2;;;2.5;;
73421;SDS011;61637;47.760;-122.022;2023-04-29T00:56:02;9.8;;;2.4;;
73421;SDS011;61637;47.760;-122.022;2023-04-29T00:58:01;12.2;;;2.2;;
73421;SDS011;61637;47.760;-122.022;2023-04-29T01:00:01;9.8;;;2.4;;
73421;SDS011;61637;47.760;-122.022;2023-04-29T01:02:04;10.0;;;2.3;;
73421;SDS011;61637;47.760;-122.022;2023-04-29T01:04:02;9.4;;;2.3;;
73421;SDS011;61637;47.760;-122.022;2023-04-29T01:06:11;8.6;;;2.4;;
73421;SDS011;61637;47.760;-122.022;2023-04-29T01:08:10;11.2;;;2.4;;
73421;SDS011;61637;47.760;-122.022;2023-04-29T01:10:05;11.0;;;2.6;;
73421;SDS011;61637;47.760;-122.022;2023-04-29T01:12:07;8.4;;;2.4;;
73421;SDS011;61637;47.760;-122.022;2023-04-29T01:14:02;11.2;;;2.5;;
73421;SDS011;61637;47.760;-122.022;2023-04-29T01:16:02;9.2;;;2.3;;
73421;SDS011;61637;47.760;-122.022;2023-04-29T01:18:10;10.8;;;2.5;;
73421;SDS011;61637;47.760;-122.022;2023-04-29T01:20:02;10.1;;;2.3;;
73421;SDS011;61637;47.760;-122.022;2023-04-29T01:22:01;13.5;;;2.4;;
73421;SDS011;61637;47.760;-122.022;2023-04-29T01:24:01;10.5;;;2.5;;
73421;SDS011;61637;47.760;-122.022;2023-04-29T01:26:01;11.0;;;2.3;;
73421;SDS011;61637;47.760;-122.022;2023-04-29T01:28:07;10.5;;;2.3;;
73421;SDS011;61637;47.760;-122.022;2023-04-29T01:30:09;10.6;;;2.3;;
73421;SDS011;61637;47.760;-122.022;2023-04-29T01:32:04;10.5;;;2.3;;
73421;SDS011;61637;47.760;-122.022;2023-04-29T01:34:08;10.7;;;2.4;;
73421;SDS011;61637;47.760;-122.022;2023-04-29T01:36:11;10.5;;;2.4;;
73421;SDS011;61637;47.760;-122.022;2023-04-29T01:38:10;11.4;;;2.6;;
73421;SDS011;61637;47.760;-122.022;2023-04-29T01:40:07;14.6;;;2.5;;
73421;SDS011;61637;47.760;-122.022;2023-04-29T01:42:07;9.7;;;2.3;;
73421;SDS011;61637;47.760;-122.022;2023-04-29T01:44:02;11.5;;;2.8;;
73421;SDS011;61637;47.760;-122.022;2023-04-29T01:46:01;14.8;;;2.5;;
73421;SDS011;61637;47.760;-122.022;2023-04-29T01:48:02;9.0;;;2.3;;
73421;SDS011;61637;47.760;-122.022;2023-04-29T01:50:01;10.1;;;2.5;;
73421;SDS011;61637;47.760;-122.022;2023-04-29T01:52:01;11.3;;;2.4;;
73421;SDS011;61637;47.760;-122.022;2023-04-29T01:54:01;10.0;;;2.4;;
73421;SDS011;61637;47.760;-122.022;2023-04-29T01:56:01;11.3;;;2.5;;
73421;SDS011;61637;47.760;-122.022;2023-04-29T01:58:01;10.7;;;2.4;;
73421;SDS011;61637;47.760;-122.022;2023-04-29T02:00:02;10.2;;;2.5;;
73421;SDS011;61637;47.760;-122.022;2023-04-29T02:02:01;9.6;;;2.4;;
73421;SDS011;61637;47.760;-122.022;2023-04-29T02:04:01;11.6;;;2.4;;
73421;SDS011;61637;47.760;-122.022;2023-04-29T02:06:01;11.9;;;2.6;;
73421;SDS011;61637;47.760;-122.022;2023-04-29T02:08:02;16.0;;;2.8;;
73421;SDS011;61637;47.760;-122.022;2023-04-29T02:10:01;13.3;;;2.8;;
73421;SDS011;61637;47.760;-122.022;2023-04-29T02:12:01;11.2;;;2.6;;
73421;SDS011;61637;47.760;-122.022;2023-04-29T02:14:01;12.0;;;2.5;;
73421;SDS011;61637;47.760;-122.022;2023-04-29T02:16:06;11.3;;;2.6;;
73421;SDS011;61637;47.760;-122.022;2023-04-29T02:18:02;10.4;;;2.1;;
73421;SDS011;61637;47.760;-122.022;2023-04-29T02:20:01;16.0;;;2.4;;
73421;SDS011;61637;47.760;-122.022;2023-04-29T02:22:01;10.1;;;2.4;;
73421;SDS011;61637;47.760;-122.022;2023-04-29T02:24:02;11.0;;;2.8;;
73421;SDS011;61637;47.760;-122.022;2023-04-29T02:26:01;11.9;;;2.5;;
73421;SDS011;61637;47.760;-122.022;2023-04-29T02:28:01;14.9;;;2.6;;
73421;SDS011;61637;47.760;-122.022;2023-04-29T02:30:01;13.3;;;2.6;;
73421;SDS011;61637;47.760;-122.022;2023-04-29T02:32:01;11.6;;;2.6;;
73421;SDS011;61637;47.760;-122.022;2023-04-29T02:34:01;12.1;;;2.4;;
73421;SDS011;61637;47.760;-122.022;2023-04-29T02:36:01;13.9;;;2.7;;
73421;SDS011;61637;47.760;-122.022;2023-04-29T02:38:01;14.6;;;2.6;;
73421;SDS011;61637;47.760;-122.022;2023-04-29T02:40:01;12.6;;;2.7;;
73421;SDS011;61637;47.760;-122.022;2023-04-29T02:42:02;10.8;;;2.5;;
73421;SDS011;61637;47.760;-122.022;2023-04-29T02:44:01;12.5;;;2.7;;
73421;SDS011;61637;47.760;-122.022;2023-04-29T02:46:01;10.9;;;2.8;;
73421;SDS011;61637;47.760;-122.022;2023-04-29T02:48:01;14.2;;;2.4;;
73421;SDS011;61637;47.760;-122.022;2023-04-29T02:50:01;13.8;;;2.7;;
73421;SDS011;61637;47.760;-122.022;2023-04-29T02:52:01;12.4;;;2.4;;
73421;SDS011;61637;47.760;-122.022;2023-04-29T02:54:01;15.6;;;2.9;;
73421;SDS011;61637;47.760;-122.022;2023-04-29T02:56:01;11.7;;;2.5;;
73421;SDS011;61637;47.760;-122.022;2023-04-29T02:58:01;13.1;;;2.7;;
73421;SDS011;61637;47.760;-122.022;2023-04-29T03:00:01;12.6;;;2.7;;
73421;SDS011;61637;47.760;-122.022;2023-04-29T03:02:01;13.5;;;2.8;;
73421;SDS011;61637;47.760;-122.022;2023-04-29T03:04:01;11.6;;;3.0;;
73421;SDS011;61637;47.760;-122.022;2023-04-29T03:06:02;11.6;;;3.0;;
73421;SDS011;61637;47.760;-122.022;2023-04-29T03:08:02;13.6;;;2.7;;
73421;SDS011;61637;47.760;-122.022;2023-04-29T03:10:01;11.6;;;2.5;;
73421;SDS011;61637;47.760;-122.022;2023-04-29T03:12:01;12.4;;;2.7;;
73421;SDS011;61637;47.760;-122.022;2023-04-29T03:14:01;13.1;;;2.6;;
73421;SDS011;61637;47.760;-122.022;2023-04-29T03:16:01;12.4;;;2.5;;
73421;SDS011;61637;47.760;-122.022;2023-04-29T03:18:01;12.8;;;2.6;;
73421;SDS011;61637;47.760;-122.022;2023-04-29T03:20:01;13.3;;;3.0;;
73421;SDS011;61637;47.760;-122.022;2023-04-29T03:22:01;16.1;;;2.7;;
73421;SDS011;61637;47.760;-122.022;2023-04-29T03:24:01;15.4;;;2.8;;
73421;SDS011;61637;47.760;-122.022;2023-04-29T03:26:01;14.3;;;2.7;;
73421;SDS011;61637;47.760;-122.022;2023-04-29T03:28:01;12.6;;;2.9;;
73421;SDS011;61637;47.760;-122.022;2023-04-29T03:30:01;13.4;;;3.0;;
73421;SDS011;61637;47.760;-122.022;2023-04-29T03:32:02;13.9;;;2.8;;
73421;SDS011;61637;47.760;-122.022;2023-04-29T03:34:01;9.9;;;2.8;;
73421;SDS011;61637;47.760;-122.022;2023-04-29T03:36:01;19.8;;;3.2;;
73421;SDS011;61637;47.760;-122.022;2023-04-29T03:38:01;11.8;;;2.7;;
73421;SDS011;61637;47.760;-122.022;2023-04-29T03:40:01;11.7;;;2.9;;
73421;SDS011;61637;47.760;-122.022;2023-04-29T03:42:01;10.4;;;3.0;;
73421;SDS011;61637;47.760;-122.022;2023-04-29T03:44:01;11.4;;;2.8;;
73421;SDS011;61637;47.760;-122.022;2023-04-29T03:46:01;9.8;;;2.9;;
73421;SDS011;61637;47.760;-122.022;2023-04-29T03:48:01;16.0;;;4.4;;
73421;SDS011;61637;47.760;-122.022;2023-04-29T03:50:01;11.8;;;2.9;;
73421;SDS011;61637;47.760;-122.022;2023-04-29T03:54:13;unavailable;;;unavailable;;
73421;SDS011;61637;47.760;-122.022;2023-04-29T03:56:01;17.8;;;3.1;;
73421;SDS011;61637;47.760;-122.022;2023-04-29T03:58:01;9.6;;;3.1;;
73421;SDS011;61637;47.760;-122.022;2023-04-29T04:00:01;13.2;;;3.1;;
73421;SDS011;61637;47.760;-122.022;2023-04-29T04:02:01;14.6;;;3.1;;
73421;SDS011;61637;47.760;-122.022;2023-04-29T04:04:01;13.3;;;3.0;;
73421;SDS011;61637;47.760;-122.022;2023-04-29T04:06:01;15.1;;;2.9;;
73421;SDS011;61637;47.760;-122.022;2023-04-29T04:08:01;15.7;;;3.0;;
73421;SDS011;61637;47.760;-122.022;2023-04-29T04:10:01;10.6;;;2.8;;
73421;SDS011;61637;47.760;-122.022;2023-04-29T04:12:01;10.0;;;2.9;;
73421;SDS011;61637;47.760;-122.022;2023-04-29T04:14:01;11.8;;;2.8;;
73421;SDS011;61637;47.760;-122.022;2023-04-29T04:16:01;12.9;;;2.9;;
73421;SDS011;61637;47.760;-122.022;2023-04-29T04:18:01;12.2;;;2.8;;
73421;SDS011;61637;47.760;-122.022;2023-04-29T04:20:01;13.0;;;3.1;;
73421;SDS011;61637;47.760;-122.022;2023-04-29T04:22:03;17.1;;;3.0;;
73421;SDS011;61637;47.760;-122.022;2023-04-29T04:24:01;11.5;;;2.9;;
73421;SDS011;61637;47.760;-122.022;2023-04-29T04:26:01;11.7;;;2.9;;
73421;SDS011;61637;47.760;-122.022;2023-04-29T04:28:01;12.0;;;2.9;;
73421;SDS011;61637;47.760;-122.022;2023-04-29T04:30:01;10.5;;;2.9;;
73421;SDS011;61637;47.760;-122.022;2023-04-29T04:32:01;11.2;;;3.1;;
73421;SDS011;61637;47.760;-122.022;2023-04-29T04:34:01;12.1;;;3.0;;
73421;SDS011;61637;47.760;-122.022;2023-04-29T04:36:01;14.0;;;3.1;;
73421;SDS011;61637;47.760;-122.022;2023-04-29T04:38:01;13.2;;;2.8;;
73421;SDS011;61637;47.760;-122.022;2023-04-29T04:40:01;13.6;;;2.9;;
73421;SDS011;61637;47.760;-122.022;2023-04-29T04:42:01;12.7;;;2.7;;
73421;SDS011;61637;47.760;-122.022;2023-04-29T04:44:01;12.3;;;2.7;;
73421;SDS011;61637;47.760;-122.022;2023-04-29T04:46:09;13.3;;;3.0;;
73421;SDS011;61637;47.760;-122.022;2023-04-29T04:48:01;15.6;;;2.8;;
73421;SDS011;61637;47.760;-122.022;2023-04-29T04:50:01;14.8;;;2.7;;
73421;SDS011;61637;47.760;-122.022;2023-04-29T04:52:01;10.7;;;2.7;;
73421;SDS011;61637;47.760;-122.022;2023-04-29T04:54:01;12.7;;;3.1;;
73421;SDS011;61637;47.760;-122.022;2023-04-29T04:56:01;13.8;;;3.0;;
73421;SDS011;61637;47.760;-122.022;2023-04-29T04:58:01;12.7;;;2.8;;
73421;SDS011;61637;47.760;-122.022;2023-04-29T05:00:01;16.0;;;3.0;;
73421;SDS011;61637;47.760;-122.022;2023-04-29T05:02:01;13.1;;;2.8;;
73421;SDS011;61637;47.760;-122.022;2023-04-29T05:04:01;10.9;;;2.8;;
73421;SDS011;61637;47.760;-122.022;2023-04-29T05:06:01;11.6;;;2.9;;
73421;SDS011;61637;47.760;-122.022;2023-04-29T05:08:01;9.5;;;2.6;;
73421;SDS011;61637;47.760;-122.022;2023-04-29T05:10:01;14.9;;;3.0;;
73421;SDS011;61637;47.760;-122.022;2023-04-29T05:12:01;9.1;;;2.9;;
73421;SDS011;61637;47.760;-122.022;2023-04-29T05:14:01;17.2;;;3.0;;
73421;SDS011;61637;47.760;-122.022;2023-04-29T05:16:02;12.0;;;3.1;;
73421;SDS011;61637;47.760;-122.022;2023-04-29T05:18:01;15.6;;;3.2;;
73421;SDS011;61637;47.760;-122.022;2023-04-29T05:20:01;15.2;;;3.4;;
73421;SDS011;61637;47.760;-122.022;2023-04-29T05:22:01;16.5;;;4.2;;
73421;SDS011;61637;47.760;-122.022;2023-04-29T05:24:01;14.5;;;3.6;;
73421;SDS011;61637;47.760;-122.022;2023-04-29T05:26:01;12.8;;;3.7;;
73421;SDS011;61637;47.760;-122.022;2023-04-29T05:28:01;18.2;;;4.1;;
73421;SDS011;61637;47.760;-122.022;2023-04-29T05:30:01;17.2;;;3.8;;
73421;SDS011;61637;47.760;-122.022;2023-04-29T05:32:01;13.7;;;3.7;;
73421;SDS011;61637;47.760;-122.022;2023-04-29T05:34:01;12.0;;;3.9;;
73421;SDS011;61637;47.760;-122.022;2023-04-29T05:36:01;15.7;;;3.9;;
73421;SDS011;61637;47.760;-122.022;2023-04-29T05:38:01;15.9;;;4.1;;
73421;SDS011;61637;47.760;-122.022;2023-04-29T05:40:01;16.3;;;4.0;;
73421;SDS011;61637;47.760;-122.022;2023-04-29T05:42:01;11.7;;;3.6;;
73421;SDS011;61637;47.760;-122.022;2023-04-29T05:44:01;11.3;;;4.2;;
73421;SDS011;61637;47.760;-122.022;2023-04-29T05:46:01;12.8;;;4.7;;
73421;SDS011;61637;47.760;-122.022;2023-04-29T05:48:01;16.8;;;4.5;;
73421;SDS011;61637;47.760;-122.022;2023-04-29T05:50:01;13.7;;;4.7;;
73421;SDS011;61637;47.760;-122.022;2023-04-29T05:52:01;15.1;;;4.3;;
73421;SDS011;61637;47.760;-122.022;2023-04-29T05:54:01;12.5;;;3.8;;
73421;SDS011;61637;47.760;-122.022;2023-04-29T05:56:01;17.5;;;4.4;;
73421;SDS011;61637;47.760;-122.022;2023-04-29T05:58:01;12.0;;;4.2;;
73421;SDS011;61637;47.760;-122.022;2023-04-29T06:00:01;14.9;;;4.2;;
73421;SDS011;61637;47.760;-122.022;2023-04-29T06:02:01;16.4;;;4.4;;
73421;SDS011;61637;47.760;-122.022;2023-04-29T06:04:01;9.4;;;3.9;;
73421;SDS011;61637;47.760;-122.022;2023-04-29T06:06:02;12.4;;;4.3;;
73421;SDS011;61637;47.760;-122.022;2023-04-29T06:08:01;10.5;;;3.7;;
73421;SDS011;61637;47.760;-122.022;2023-04-29T06:10:01;14.0;;;4.5;;
73421;SDS011;61637;47.760;-122.022;2023-04-29T06:12:01;11.9;;;4.4;;
73421;SDS011;61637;47.760;-122.022;2023-04-29T06:14:01;12.2;;;4.2;;
73421;SDS011;61637;47.760;-122.022;2023-04-29T06:16:01;13.6;;;4.2;;
73421;SDS011;61637;47.760;-122.022;2023-04-29T06:18:01;10.6;;;4.5;;
73421;SDS011;61637;47.760;-122.022;2023-04-29T06:20:01;11.5;;;4.7;;
73421;SDS011;61637;47.760;-122.022;2023-04-29T06:22:01;11.7;;;4.2;;
73421;SDS011;61637;47.760;-122.022;2023-04-29T06:24:01;12.8;;;4.6;;
73421;SDS011;61637;47.760;-122.022;2023-04-29T06:26:01;12.7;;;3.9;;
73421;SDS011;61637;47.760;-122.022;2023-04-29T06:28:01;15.9;;;4.2;;
73421;SDS011;61637;47.760;-122.022;2023-04-29T06:30:01;12.4;;;3.7;;
73421;SDS011;61637;47.760;-122.022;2023-04-29T06:32:01;14.2;;;3.4;;
73421;SDS011;61637;47.760;-122.022;2023-04-29T06:34:01;13.6;;;3.7;;
73421;SDS011;61637;47.760;-122.022;2023-04-29T06:36:01;10.2;;;3.1;;
73421;SDS011;61637;47.760;-122.022;2023-04-29T06:38:01;12.0;;;3.3;;
73421;SDS011;61637;47.760;-122.022;2023-04-29T06:40:01;8.0;;;3.0;;
73421;SDS011;61637;47.760;-122.022;2023-04-29T06:42:01;14.6;;;3.5;;
73421;SDS011;61637;47.760;-122.022;2023-04-29T06:44:01;13.0;;;3.4;;
73421;SDS011;61637;47.760;-122.022;2023-04-29T06:46:01;10.4;;;3.1;;
73421;SDS011;61637;47.760;-122.022;2023-04-29T06:48:01;12.9;;;3.5;;
73421;SDS011;61637;47.760;-122.022;2023-04-29T06:50:01;13.3;;;3.9;;
73421;SDS011;61637;47.760;-122.022;2023-04-29T06:52:01;11.7;;;3.1;;
73421;SDS011;61637;47.760;-122.022;2023-04-29T06:54:01;9.3;;;3.3;;
73421;SDS011;61637;47.760;-122.022;2023-04-29T06:56:01;12.2;;;3.5;;
73421;SDS011;61637;47.760;-122.022;2023-04-29T06:58:01;12.2;;;3.6;;
73421;SDS011;61637;47.760;-122.022;2023-04-29T07:00:01;13.8;;;3.4;;
73421;SDS011;61637;47.760;-122.022;2023-04-29T07:02:01;10.4;;;3.2;;
73421;SDS011;61637;47.760;-122.022;2023-04-29T07:04:01;11.8;;;3.6;;
73421;SDS011;61637;47.760;-122.022;2023-04-29T07:06:01;9.5;;;3.4;;
73421;SDS011;61637;47.760;-122.022;2023-04-29T07:08:01;11.5;;;3.8;;
73421;SDS011;61637;47.760;-122.022;2023-04-29T07:10:01;13.6;;;4.0;;
73421;SDS011;61637;47.760;-122.022;2023-04-29T07:12:01;11.7;;;5.5;;
73421;SDS011;61637;47.760;-122.022;2023-04-29T07:14:01;12.0;;;4.8;;
73421;SDS011;61637;47.760;-122.022;2023-04-29T07:16:01;14.0;;;5.8;;
73421;SDS011;61637;47.760;-122.022;2023-04-29T07:18:03;13.6;;;5.7;;
73421;SDS011;61637;47.760;-122.022;2023-04-29T07:20:01;14.1;;;4.4;;
73421;SDS011;61637;47.760;-122.022;2023-04-29T07:22:01;13.2;;;5.1;;
73421;SDS011;61637;47.760;-122.022;2023-04-29T07:24:01;14.9;;;6.2;;
73421;SDS011;61637;47.760;-122.022;2023-04-29T07:26:09;15.7;;;6.7;;
73421;SDS011;61637;47.760;-122.022;2023-04-29T07:28:01;18.8;;;6.1;;
73421;SDS011;61637;47.760;-122.022;2023-04-29T07:30:02;12.9;;;4.9;;
73421;SDS011;61637;47.760;-122.022;2023-04-29T07:32:01;13.0;;;4.6;;
73421;SDS011;61637;47.760;-122.022;2023-04-29T07:34:01;11.4;;;4.0;;
73421;SDS011;61637;47.760;-122.022;2023-04-29T07:36:01;10.6;;;3.9;;
73421;SDS011;61637;47.760;-122.022;2023-04-29T07:38:01;12.8;;;4.0;;
73421;SDS011;61637;47.760;-122.022;2023-04-29T07:40:01;13.7;;;3.9;;
73421;SDS011;61637;47.760;-122.022;2023-04-29T07:42:01;11.7;;;3.7;;
73421;SDS011;61637;47.760;-122.022;2023-04-29T07:44:01;12.1;;;3.5;;
73421;SDS011;61637;47.760;-122.022;2023-04-29T07:46:01;12.1;;;3.5;;
73421;SDS011;61637;47.760;-122.022;2023-04-29T07:48:01;11.4;;;3.3;;
73421;SDS011;61637;47.760;-122.022;2023-04-29T07:50:01;14.4;;;3.6;;
73421;SDS011;61637;47.760;-122.022;2023-04-29T07:52:01;13.0;;;3.5;;
73421;SDS011;61637;47.760;-122.022;2023-04-29T07:54:01;13.3;;;3.8;;
73421;SDS011;61637;47.760;-122.022;2023-04-29T07:56:05;13.5;;;3.9;;
73421;SDS011;61637;47.760;-122.022;2023-04-29T07:58:01;15.0;;;4.4;;
73421;SDS011;61637;47.760;-122.022;2023-04-29T08:00:01;12.9;;;4.1;;
73421;SDS011;61637;47.760;-122.022;2023-04-29T08:02:01;17.1;;;4.4;;
73421;SDS011;61637;47.760;-122.022;2023-04-29T08:04:01;13.7;;;4.8;;
73421;SDS011;61637;47.760;-122.022;2023-04-29T08:06:02;16.3;;;4.8;;
73421;SDS011;61637;47.760;-122.022;2023-04-29T08:08:01;16.2;;;5.1;;
73421;SDS011;61637;47.760;-122.022;2023-04-29T08:10:01;15.6;;;5.0;;
73421;SDS011;61637;47.760;-122.022;2023-04-29T08:12:01;16.3;;;4.9;;
73421;SDS011;61637;47.760;-122.022;2023-04-29T08:14:01;14.4;;;5.0;;
73421;SDS011;61637;47.760;-122.022;2023-04-29T08:16:01;14.0;;;4.9;;
73421;SDS011;61637;47.760;-122.022;2023-04-29T08:18:01;20.0;;;5.6;;
73421;SDS011;61637;47.760;-122.022;2023-04-29T08:20:01;14.3;;;4.8;;
73421;SDS011;61637;47.760;-122.022;2023-04-29T08:22:01;17.5;;;4.8;;
73421;SDS011;61637;47.760;-122.022;2023-04-29T08:24:01;19.4;;;5.5;;
73421;SDS011;61637;47.760;-122.022;2023-04-29T08:26:01;14.8;;;3.6;;
73421;SDS011;61637;47.760;-122.022;2023-04-29T08:28:01;12.9;;;3.1;;
73421;SDS011;61637;47.760;-122.022;2023-04-29T08:30:01;12.5;;;4.1;;
73421;SDS011;61637;47.760;-122.022;2023-04-29T08:32:01;12.5;;;3.7;;
73421;SDS011;61637;47.760;-122.022;2023-04-29T08:34:01;12.8;;;3.6;;
73421;SDS011;61637;47.760;-122.022;2023-04-29T08:36:01;13.3;;;3.5;;
73421;SDS011;61637;47.760;-122.022;2023-04-29T08:38:01;13.5;;;3.2;;
73421;SDS011;61637;47.760;-122.022;2023-04-29T08:40:01;10.1;;;3.0;;
73421;SDS011;61637;47.760;-122.022;2023-04-29T08:42:06;19.5;;;3.5;;
73421;SDS011;61637;47.760;-122.022;2023-04-29T08:44:01;11.1;;;3.0;;
73421;SDS011;61637;47.760;-122.022;2023-04-29T08:46:01;12.2;;;2.8;;
73421;SDS011;61637;47.760;-122.022;2023-04-29T08:48:02;11.9;;;3.0;;
73421;SDS011;61637;47.760;-122.022;2023-04-29T08:50:02;15.6;;;3.2;;
73421;SDS011;61637;47.760;-122.022;2023-04-29T08:52:01;13.7;;;2.9;;
73421;SDS011;61637;47.760;-122.022;2023-04-29T08:54:01;11.4;;;2.7;;
73421;SDS011;61637;47.760;-122.022;2023-04-29T08:56:08;13.6;;;3.2;;
73421;SDS011;61637;47.760;-122.022;2023-04-29T08:58:01;11.0;;;2.9;;
73421;SDS011;61637;47.760;-122.022;2023-04-29T09:00:01;10.2;;;2.9;;
73421;SDS011;61637;47.760;-122.022;2023-04-29T09:02:01;12.7;;;2.9;;
73421;SDS011;61637;47.760;-122.022;2023-04-29T09:04:07;11.9;;;2.8;;
73421;SDS011;61637;47.760;-122.022;2023-04-29T09:06:02;10.9;;;2.8;;
73421;SDS011;61637;47.760;-122.022;2023-04-29T09:08:01;12.8;;;3.0;;
73421;SDS011;61637;47.760;-122.022;2023-04-29T09:10:01;13.8;;;2.9;;
73421;SDS011;61637;47.760;-122.022;2023-04-29T09:12:01;12.4;;;3.1;;
73421;SDS011;61637;47.760;-122.022;2023-04-29T09:14:01;11.1;;;3.0;;
73421;SDS011;61637;47.760;-122.022;2023-04-29T09:16:01;11.1;;;2.8;;
73421;SDS011;61637;47.760;-122.022;2023-04-29T09:18:01;14.4;;;3.1;;
73421;SDS011;61637;47.760;-122.022;2023-04-29T09:20:01;12.5;;;3.0;;
73421;SDS011;61637;47.760;-122.022;2023-04-29T09:22:02;10.5;;;3.0;;
73421;SDS011;61637;47.760;-122.022;2023-04-29T09:24:02;13.8;;;3.1;;
73421;SDS011;61637;47.760;-122.022;2023-04-29T09:26:01;14.3;;;3.3;;
73421;SDS011;61637;47.760;-122.022;2023-04-29T09:28:14;11.3;;;3.1;;
73421;SDS011;61637;47.760;-122.022;2023-04-29T09:30:01;11.7;;;3.1;;
73421;SDS011;61637;47.760;-122.022;2023-04-29T09:32:18;10.5;;;3.1;;
73421;SDS011;61637;47.760;-122.022;2023-04-29T09:34:01;12.1;;;3.1;;
73421;SDS011;61637;47.760;-122.022;2023-04-29T09:36:01;10.8;;;3.2;;
73421;SDS011;61637;47.760;-122.022;2023-04-29T09:38:11;12.3;;;3.1;;
73421;SDS011;61637;47.760;-122.022;2023-04-29T09:40:01;11.0;;;2.9;;
73421;SDS011;61637;47.760;-122.022;2023-04-29T09:42:01;8.5;;;3.0;;
73421;SDS011;61637;47.760;-122.022;2023-04-29T09:44:03;10.2;;;3.2;;
73421;SDS011;61637;47.760;-122.022;2023-04-29T09:46:01;13.7;;;2.9;;
73421;SDS011;61637;47.760;-122.022;2023-04-29T09:48:02;11.0;;;3.0;;
73421;SDS011;61637;47.760;-122.022;2023-04-29T09:50:11;10.6;;;3.3;;
73421;SDS011;61637;47.760;-122.022;2023-04-29T09:52:02;10.1;;;3.0;;
73421;SDS011;61637;47.760;-122.022;2023-04-29T09:54:18;10.8;;;3.0;;
73421;SDS011;61637;47.760;-122.022;2023-04-29T09:56:02;11.4;;;3.1;;
73421;SDS011;61637;47.760;-122.022;2023-04-29T09:58:01;10.6;;;2.9;;
73421;SDS011;61637;47.760;-122.022;2023-04-29T10:00:01;13.7;;;3.2;;
73421;SDS011;61637;47.760;-122.022;2023-04-29T10:02:05;8.9;;;2.7;;
73421;SDS011;61637;47.760;-122.022;2023-04-29T10:04:01;9.7;;;3.1;;
73421;SDS011;61637;47.760;-122.022;2023-04-29T10:06:02;10.5;;;3.0;;
73421;SDS011;61637;47.760;-122.022;2023-04-29T10:08:02;13.2;;;3.3;;
73421;SDS011;61637;47.760;-122.022;2023-04-29T10:10:03;10.5;;;2.9;;
73421;SDS011;61637;47.760;-122.022;2023-04-29T10:12:03;11.9;;;3.0;;
73421;SDS011;61637;47.760;-122.022;2023-04-29T10:14:02;10.4;;;3.1;;
73421;SDS011;61637;47.760;-122.022;2023-04-29T10:16:09;12.1;;;3.5;;
73421;SDS011;61637;47.760;-122.022;2023-04-29T10:18:09;11.5;;;3.2;;
73421;SDS011;61637;47.760;-122.022;2023-04-29T10:20:03;11.8;;;3.2;;
73421;SDS011;61637;47.760;-122.022;2023-04-29T10:22:06;11.1;;;3.3;;
73421;SDS011;61637;47.760;-122.022;2023-04-29T10:24:01;16.4;;;3.6;;
73421;SDS011;61637;47.760;-122.022;2023-04-29T10:26:02;13.5;;;3.4;;
73421;SDS011;61637;47.760;-122.022;2023-04-29T10:28:03;10.1;;;3.6;;
73421;SDS011;61637;47.760;-122.022;2023-04-29T10:30:01;10.7;;;3.4;;
73421;SDS011;61637;47.760;-122.022;2023-04-29T10:32:02;10.4;;;3.2;;
73421;SDS011;61637;47.760;-122.022;2023-04-29T10:34:01;12.6;;;3.6;;
73421;SDS011;61637;47.760;-122.022;2023-04-29T10:36:02;11.2;;;3.4;;
73421;SDS011;61637;47.760;-122.022;2023-04-29T10:38:06;9.9;;;3.5;;
73421;SDS011;61637;47.760;-122.022;2023-04-29T10:40:10;13.0;;;3.4;;
73421;SDS011;61637;47.760;-122.022;2023-04-29T10:42:03;14.7;;;3.4;;
73421;SDS011;61637;47.760;-122.022;2023-04-29T10:44:01;12.6;;;3.4;;
73421;SDS011;61637;47.760;-122.022;2023-04-29T10:46:19;9.2;;;3.1;;
73421;SDS011;61637;47.760;-122.022;2023-04-29T10:48:10;14.5;;;3.0;;
73421;SDS011;61637;47.760;-122.022;2023-04-29T10:50:02;17.0;;;3.0;;
73421;SDS011;61637;47.760;-122.022;2023-04-29T10:52:02;13.1;;;3.0;;
73421;SDS011;61637;47.760;-122.022;2023-04-29T10:54:05;13.2;;;2.9;;
73421;SDS011;61637;47.760;-122.022;2023-04-29T10:56:07;14.7;;;3.1;;
73421;SDS011;61637;47.760;-122.022;2023-04-29T10:58:02;10.2;;;2.9;;
73421;SDS011;61637;47.760;-122.022;2023-04-29T11:00:03;13.2;;;3.0;;
73421;SDS011;61637;47.760;-122.022;2023-04-29T11:02:01;12.3;;;3.2;;
73421;SDS011;61637;47.760;-122.022;2023-04-29T11:04:02;9.6;;;3.0;;
73421;SDS011;61637;47.760;-122.022;2023-04-29T11:06:08;12.7;;;3.0;;
73421;SDS011;61637;47.760;-122.022;2023-04-29T11:08:09;10.9;;;3.5;;
73421;SDS011;61637;47.760;-122.022;2023-04-29T11:10:02;12.8;;;3.4;;
73421;SDS011;61637;47.760;-122.022;2023-04-29T11:12:02;12.1;;;3.4;;
73421;SDS011;61637;47.760;-122.022;2023-04-29T11:14:01;11.4;;;3.2;;
73421;SDS011;61637;47.760;-122.022;2023-04-29T11:16:04;11.9;;;3.3;;
73421;SDS011;61637;47.760;-122.022;2023-04-29T11:18:01;10.7;;;3.2;;
73421;SDS011;61637;47.760;-122.022;2023-04-29T11:20:01;11.5;;;3.1;;
73421;SDS011;61637;47.760;-122.022;2023-04-29T11:22:11;8.6;;;3.0;;
73421;SDS011;61637;47.760;-122.022;2023-04-29T11:24:03;14.3;;;3.0;;
73421;SDS011;61637;47.760;-122.022;2023-04-29T11:26:01;15.1;;;3.2;;
73421;SDS011;61637;47.760;-122.022;2023-04-29T11:28:01;10.8;;;3.0;;
73421;SDS011;61637;47.760;-122.022;2023-04-29T11:30:02;8.7;;;2.9;;
73421;SDS011;61637;47.760;-122.022;2023-04-29T11:32:01;8.9;;;3.0;;
73421;SDS011;61637;47.760;-122.022;2023-04-29T11:34:03;12.3;;;2.9;;
73421;SDS011;61637;47.760;-122.022;2023-04-29T11:36:02;12.0;;;3.1;;
73421;SDS011;61637;47.760;-122.022;2023-04-29T11:38:01;13.3;;;3.1;;
73421;SDS011;61637;47.760;-122.022;2023-04-29T11:40:01;11.5;;;3.4;;
73421;SDS011;61637;47.760;-122.022;2023-04-29T11:42:03;12.9;;;3.2;;
73421;SDS011;61637;47.760;-122.022;2023-04-29T11:44:01;10.8;;;3.1;;